createdAt,value
2022-10-21T00:01:54.296Z,98987.97
2022-10-21T00:04:21.211Z,98990.00
2022-10-21T00:06:48.133Z,98983.53
2022-10-21T00:09:15.061Z,98987.13
2022-10-21T00:11:42.037Z,98990.50
2022-10-21T00:14:09.197Z,98985.28
2022-10-21T00:16:36.118Z,98977.19
2022-10-21T00:19:03.377Z,98976.91
2022-10-21T00:21:30.287Z,98977.94
2022-10-21T00:23:57.219Z,98978.00
2022-10-21T00:26:24.336Z,98980.72
2022-10-21T00:28:56.725Z,98981.03
2022-10-21T00:31:24.885Z,98983.41
2022-10-21T00:33:52.196Z,98978.16
2022-10-21T00:36:19.394Z,98974.72
2022-10-21T00:38:48.683Z,98984.06
2022-10-21T00:41:17.972Z,98978.63
2022-10-21T00:43:55.686Z,98982.59
2022-10-21T00:46:46.738Z,98975.06
2022-10-21T00:49:36.441Z,98973.75
2022-10-21T00:52:07.129Z,98972.34
2022-10-21T00:54:35.434Z,98970.50
2022-10-21T00:57:02.426Z,98965.31
2022-10-21T00:59:34.341Z,98962.78
2022-10-21T01:02:01.332Z,98964.97
2022-10-21T01:04:28.411Z,98961.16
2022-10-21T01:06:56.134Z,98962.16
2022-10-21T01:09:23.878Z,98969.75
2022-10-21T01:11:50.778Z,98960.81
2022-10-21T01:14:38.558Z,98960.59
2022-10-21T01:17:43.735Z,98956.78
2022-10-21T01:21:05.302Z,98956.47
2022-10-21T01:24:08.712Z,98959.38
2022-10-21T01:27:06.434Z,98971.00
2022-10-21T01:29:58.622Z,98961.06
2022-10-21T01:32:31.261Z,98976.03
2022-10-21T01:35:06.735Z,98967.50
2022-10-21T01:37:58.401Z,98969.47
2022-10-21T01:40:43.064Z,98965.09
2022-10-21T01:43:15.792Z,98959.16
2022-10-21T01:45:56.860Z,98955.72
2022-10-21T01:48:30.028Z,98957.31
2022-10-21T01:51:01.750Z,98957.63
2022-10-21T01:54:03.834Z,98955.34
2022-10-21T01:56:32.318Z,98968.16
2022-10-21T01:59:01.561Z,98975.28
2022-10-21T02:01:29.410Z,98978.63
2022-10-21T02:04:01.261Z,98983.09
2022-10-21T02:06:28.389Z,98975.56
2022-10-21T02:08:55.731Z,98977.03
2022-10-21T02:11:23.065Z,98978.91
2022-10-21T02:14:02.835Z,98980.84
2022-10-21T02:16:35.618Z,98981.75
2022-10-21T02:19:02.546Z,98974.91
2022-10-21T02:21:34.551Z,98977.94
2022-10-21T02:24:20.261Z,98977.34
2022-10-21T02:26:47.185Z,98977.88
2022-10-21T02:29:15.118Z,98976.97
2022-10-21T02:32:07.828Z,98984.22
2022-10-21T02:34:43.518Z,98989.00
2022-10-21T02:37:36.837Z,98988.88
2022-10-21T02:40:12.094Z,98985.38
2022-10-21T02:42:48.218Z,98984.00
2022-10-21T02:45:17.687Z,98988.72
2022-10-21T02:47:45.035Z,98983.84
2022-10-21T02:50:13.058Z,98991.78
2022-10-21T02:52:39.989Z,98987.13
2022-10-21T02:55:07.274Z,98991.28
2022-10-21T02:57:34.166Z,98996.16
2022-10-21T03:00:01.071Z,99002.19
2022-10-21T03:02:27.960Z,98996.97
2022-10-21T03:04:54.806Z,98996.34
2022-10-21T03:07:21.652Z,98993.94
2022-10-21T03:09:48.516Z,98984.44
2022-10-21T03:12:15.467Z,98991.31
2022-10-21T03:14:42.349Z,98988.00
2022-10-21T03:17:09.352Z,98992.44
2022-10-21T03:19:36.223Z,98992.72
2022-10-21T03:22:03.104Z,98996.56
2022-10-21T03:24:29.956Z,98991.97
2022-10-21T03:26:56.823Z,98984.81
2022-10-21T03:29:23.851Z,98988.16
2022-10-21T03:31:50.800Z,98986.72
2022-10-21T03:34:17.865Z,98989.19
2022-10-21T03:36:44.794Z,98990.78
2022-10-21T03:39:12.378Z,98994.16
2022-10-21T03:41:39.618Z,98991.41
2022-10-21T03:44:06.703Z,98999.75
2022-10-21T03:46:33.609Z,98997.63
2022-10-21T03:49:04.197Z,98994.56
2022-10-21T03:51:33.006Z,98992.38
2022-10-21T03:53:59.889Z,98991.03
2022-10-21T03:56:26.765Z,98990.06
2022-10-21T03:58:57.806Z,98992.31
2022-10-21T04:01:26.059Z,98997.69
2022-10-21T04:03:53.386Z,98993.66
2022-10-21T04:06:20.241Z,98992.97
2022-10-21T04:08:47.388Z,98991.22
2022-10-21T04:11:14.324Z,98986.38
2022-10-21T04:13:41.464Z,98993.19
2022-10-21T04:16:13.763Z,98992.81
2022-10-21T04:18:41.036Z,99000.03
2022-10-21T04:21:08.915Z,98994.38
2022-10-21T04:23:36.597Z,98996.41
2022-10-21T04:26:04.709Z,99001.97
2022-10-21T04:28:31.716Z,99006.69
2022-10-21T04:30:58.690Z,99001.97
2022-10-21T04:33:25.752Z,99008.31
2022-10-21T04:35:55.091Z,99007.09
2022-10-21T04:38:23.276Z,98998.09
2022-10-21T04:41:00.306Z,99000.84
2022-10-21T04:43:27.870Z,98998.38
2022-10-21T04:45:55.165Z,98999.00
2022-10-21T04:48:23.036Z,99011.53
2022-10-21T04:50:53.279Z,99008.84
2022-10-21T04:53:21.201Z,99008.91
2022-10-21T04:55:52.907Z,99011.16
2022-10-21T04:58:22.007Z,99028.25
2022-10-21T05:00:52.883Z,99030.69
2022-10-21T05:03:20.392Z,99021.72
2022-10-21T05:05:51.697Z,99027.22
2022-10-21T05:08:20.024Z,99028.22
2022-10-21T05:10:47.085Z,99023.44
2022-10-21T05:13:14.623Z,99025.53
2022-10-21T05:15:41.523Z,99031.88
2022-10-21T05:18:08.403Z,99024.50
2022-10-21T05:20:35.316Z,99036.16
2022-10-21T05:23:02.233Z,99034.13
2022-10-21T05:25:31.783Z,99035.81
2022-10-21T05:28:01.191Z,99037.97
2022-10-21T05:30:28.184Z,99034.59
2022-10-21T05:32:55.161Z,99045.88
2022-10-21T05:35:22.007Z,99047.94
2022-10-21T05:37:48.916Z,99035.22
2022-10-21T05:40:15.881Z,99036.19
2022-10-21T05:42:42.818Z,99045.00
2022-10-21T05:45:10.573Z,99052.75
2022-10-21T05:47:38.367Z,99057.47
2022-10-21T05:50:05.628Z,99055.47
2022-10-21T05:52:32.475Z,99054.78
2022-10-21T05:54:59.309Z,99055.19
2022-10-21T05:57:26.171Z,99061.22
2022-10-21T05:59:53.005Z,99066.31
2022-10-21T06:02:19.873Z,99070.09
2022-10-21T06:04:46.760Z,99069.56
2022-10-21T06:07:13.651Z,99075.56
2022-10-21T06:09:40.594Z,99073.88
2022-10-21T06:12:07.864Z,99078.13
2022-10-21T06:14:37.577Z,99077.09
2022-10-21T06:21:40.374Z,99077.16
2022-10-21T06:24:07.380Z,99077.25
2022-10-21T06:26:36.208Z,99075.78
2022-10-21T06:29:04.199Z,99070.59
2022-10-21T06:31:31.222Z,99073.06
2022-10-21T06:33:58.040Z,99073.63
2022-10-21T06:36:24.867Z,99070.00
2022-10-21T06:38:51.736Z,99075.19
2022-10-21T06:41:19.142Z,99076.44
2022-10-21T06:43:46.061Z,99075.19
2022-10-21T06:46:15.665Z,99072.25
2022-10-21T06:48:42.551Z,99069.84
2022-10-21T06:51:12.656Z,99080.84
2022-10-21T06:53:39.746Z,99072.97
2022-10-21T06:56:09.323Z,99075.88
2022-10-21T06:58:37.574Z,99071.47
2022-10-21T07:01:27.307Z,99077.47
2022-10-21T07:04:00.298Z,99083.31
2022-10-21T07:06:27.316Z,99070.22
2022-10-21T07:08:58.255Z,99070.03
2022-10-21T07:11:26.535Z,99076.63
2022-10-21T07:13:53.387Z,99071.06
2022-10-21T07:16:28.919Z,99067.56
2022-10-21T07:18:56.773Z,99070.84
2022-10-21T07:21:26.526Z,99071.97
2022-10-21T07:23:56.583Z,99068.22
2022-10-21T07:26:28.517Z,99058.16
2022-10-21T07:28:58.292Z,99064.00
2022-10-21T07:31:25.455Z,99068.56
2022-10-21T07:33:52.579Z,99069.19
2022-10-21T07:36:23.507Z,99064.78
2022-10-21T07:38:51.642Z,99073.50
2022-10-21T07:41:24.196Z,99067.25
2022-10-21T07:43:51.976Z,99067.34
2022-10-21T07:46:20.336Z,99074.47
2022-10-21T07:48:47.840Z,99066.28
2022-10-21T07:55:04.987Z,99071.22
2022-10-21T07:57:31.942Z,99067.22
2022-10-21T07:59:58.867Z,99063.09
2022-10-21T08:02:25.782Z,99061.56
2022-10-21T08:04:55.101Z,99057.84
2022-10-21T08:07:21.982Z,99061.50
2022-10-21T08:09:49.024Z,99066.88
2022-10-21T08:12:16.016Z,99064.25
2022-10-21T08:14:42.884Z,99055.00
2022-10-21T08:17:09.805Z,99057.97
2022-10-21T08:19:36.690Z,99064.41
2022-10-21T08:22:03.572Z,99059.41
2022-10-21T08:24:30.589Z,99058.34
2022-10-21T08:26:57.537Z,99055.44
2022-10-21T08:29:24.784Z,99053.06
2022-10-21T08:31:52.873Z,99054.19
2022-10-21T08:34:19.716Z,99053.63
2022-10-21T08:36:46.658Z,99053.63
2022-10-21T08:39:13.650Z,99060.94
2022-10-21T08:42:00.905Z,99058.47
2022-10-21T08:44:27.658Z,99057.19
2022-10-21T08:47:18.503Z,99055.56
2022-10-21T08:50:12.503Z,99059.59
2022-10-21T08:52:55.038Z,99051.91
2022-10-21T08:55:34.572Z,99053.22
2022-10-21T08:58:02.705Z,99049.41
2022-10-21T09:00:36.006Z,99052.63
2022-10-21T09:03:29.833Z,99055.47
2022-10-21T09:06:33.900Z,99048.97
2022-10-21T09:09:42.073Z,99050.72
2022-10-21T09:12:15.272Z,99037.53
2022-10-21T09:14:51.327Z,99045.06
2022-10-21T09:17:37.037Z,99050.06
2022-10-21T09:20:41.345Z,99048.00
2022-10-21T09:26:26.595Z,99042.81
2022-10-21T09:28:56.925Z,99038.75
2022-10-21T09:31:23.770Z,99044.25
2022-10-21T09:33:57.360Z,99035.16
2022-10-21T09:36:32.535Z,99039.25
2022-10-21T09:39:06.556Z,99039.91
2022-10-21T09:41:41.084Z,99040.47
2022-10-21T10:16:33.234Z,99006.25
2022-10-21T10:19:20.067Z,98993.09
2022-10-21T10:22:10.222Z,99004.47
2022-10-21T10:24:40.746Z,98997.59
2022-10-21T10:27:23.591Z,99000.91
2022-10-21T10:29:55.581Z,98998.66
2022-10-21T10:32:26.045Z,98990.88
2022-10-21T10:34:56.791Z,98988.75
2022-10-21T10:37:26.395Z,98983.16
2022-10-21T10:39:59.413Z,98983.38
2022-10-21T10:42:34.055Z,98978.41
2022-10-21T10:45:05.653Z,98976.03
2022-10-21T10:47:42.242Z,98975.91
2022-10-21T10:50:35.250Z,98981.13
2022-10-21T10:53:31.086Z,98975.88
2022-10-21T10:56:03.714Z,98981.28
2022-10-21T10:58:35.947Z,98968.91
2022-10-21T11:01:11.483Z,98961.53
2022-10-21T11:03:47.725Z,98970.53
2022-10-21T11:06:21.898Z,98969.16
2022-10-21T11:08:57.788Z,98973.41
2022-10-21T11:11:36.668Z,98962.97
2022-10-21T11:14:03.663Z,98963.50
2022-10-21T11:16:59.430Z,98958.72
2022-10-21T11:19:30.599Z,98958.44
2022-10-21T11:22:06.037Z,98955.47
2022-10-21T11:24:54.884Z,98959.16
2022-10-21T11:27:59.901Z,98958.03
2022-10-21T11:31:27.888Z,98957.34
2022-10-21T11:34:03.232Z,98949.72
2022-10-21T11:37:02.413Z,98948.59
2022-10-21T11:39:54.305Z,98954.41
2022-10-21T11:42:47.328Z,98950.41
2022-10-21T12:00:25.617Z,98918.34
2022-10-21T12:03:26.277Z,98917.00
2022-10-21T12:06:04.165Z,98914.66
2022-10-21T12:08:43.837Z,98912.53
2022-10-21T12:11:29.375Z,98911.81
2022-10-21T12:14:26.563Z,98910.00
2022-10-21T12:16:58.795Z,98912.53
2022-10-21T12:19:26.296Z,98906.47
2022-10-21T12:21:53.209Z,98914.50
2022-10-21T12:24:42.363Z,98901.28
2022-10-21T12:27:29.990Z,98906.75
2022-10-21T12:30:03.296Z,98903.44
2022-10-21T12:32:45.007Z,98903.63
2022-10-21T12:35:17.071Z,98912.28
2022-10-21T12:37:52.860Z,98902.66
2022-10-21T12:40:25.776Z,98908.16
2022-10-21T12:43:05.877Z,98906.97
2022-10-21T12:45:35.830Z,98897.50
2022-10-21T12:48:31.927Z,98905.47
2022-10-21T12:51:02.544Z,98902.53
2022-10-21T12:53:42.965Z,98894.63
2022-10-21T12:56:11.150Z,98901.53
2022-10-21T12:58:44.113Z,98897.94
2022-10-21T13:01:42.356Z,98905.88
2022-10-21T13:04:34.048Z,98907.41
2022-10-21T13:07:01.815Z,98910.19
2022-10-21T13:09:43.910Z,98910.19
2022-10-21T13:12:10.933Z,98902.97
2022-10-21T13:15:22.190Z,98911.84
2022-10-21T13:17:52.820Z,98909.09
2022-10-21T13:20:22.692Z,98907.56
2022-10-21T13:23:01.873Z,98910.06
2022-10-21T13:25:32.994Z,98908.97
2022-10-21T13:28:25.800Z,98904.78
2022-10-21T13:30:52.651Z,98909.34
2022-10-21T13:33:25.620Z,98906.72
2022-10-21T13:35:56.102Z,98903.53
2022-10-21T13:38:23.227Z,98907.84
2022-10-21T13:40:56.691Z,98907.16
2022-10-21T13:43:48.380Z,98900.91
2022-10-21T13:46:19.048Z,98901.59
2022-10-21T13:48:48.497Z,98901.88
2022-10-21T13:51:23.799Z,98893.97
2022-10-21T13:53:55.208Z,98901.59
2022-10-21T13:56:24.176Z,98900.59
2022-10-21T13:58:51.812Z,98900.06
2022-10-21T14:01:31.331Z,98909.91
2022-10-21T14:04:15.781Z,98895.72
2022-10-21T14:06:48.795Z,98894.84
2022-10-21T14:09:44.492Z,98898.47
2022-10-21T14:12:20.004Z,98900.97
2022-10-21T14:14:47.495Z,98903.88
2022-10-21T14:17:19.863Z,98894.78
2022-10-21T14:19:51.090Z,98899.16
2022-10-21T14:22:24.998Z,98897.88
2022-10-21T14:24:56.830Z,98893.28
2022-10-21T14:27:32.812Z,98887.63
2022-10-21T14:30:03.742Z,98886.97
2022-10-21T14:32:31.049Z,98889.50
2022-10-21T14:35:07.307Z,98883.06
2022-10-21T14:37:44.847Z,98891.94
2022-10-21T14:40:33.693Z,98881.41
2022-10-21T14:43:03.830Z,98882.47
2022-10-21T14:45:36.515Z,98893.84
2022-10-21T14:48:11.827Z,98885.41
2022-10-21T14:50:41.527Z,98880.44
2022-10-21T14:53:17.180Z,98883.84
2022-10-21T14:55:46.002Z,98882.19
2022-10-21T14:58:23.329Z,98884.97
2022-10-21T15:00:59.929Z,98896.97
2022-10-21T15:03:57.582Z,98896.28
2022-10-21T15:06:30.201Z,98898.44
2022-10-21T15:08:57.313Z,98900.53
2022-10-21T15:11:26.873Z,98899.13
2022-10-21T15:14:13.607Z,98897.41
2022-10-21T15:16:51.260Z,98895.38
2022-10-21T15:19:25.437Z,98896.13
2022-10-21T15:22:03.442Z,98895.38
2022-10-21T15:24:46.316Z,98897.06
2022-10-21T15:27:42.408Z,98903.72
2022-10-21T15:30:17.833Z,98909.00
2022-10-21T15:32:45.147Z,98903.19
2022-10-21T15:35:17.727Z,98913.28
2022-10-21T15:37:49.556Z,98918.09
2022-10-21T15:40:18.099Z,98918.13
2022-10-21T15:42:45.741Z,98918.53
2022-10-21T15:45:15.352Z,98914.38
2022-10-21T15:47:42.402Z,98913.19
2022-10-21T15:50:16.624Z,98920.81
2022-10-21T15:52:44.081Z,98922.09
2022-10-21T15:55:11.426Z,98928.00
2022-10-21T15:57:42.304Z,98918.81
2022-10-21T16:00:21.836Z,98922.63
2022-10-21T16:02:51.710Z,98920.16
2022-10-21T16:05:19.757Z,98923.97
2022-10-21T16:07:46.699Z,98932.69
2022-10-21T16:10:19.691Z,98925.72
2022-10-21T16:12:46.911Z,98929.31
2022-10-21T16:15:14.683Z,98932.44
2022-10-21T16:17:47.273Z,98931.63
2022-10-21T16:20:27.251Z,98932.09
2022-10-21T16:22:54.358Z,98929.81
2022-10-21T16:25:21.834Z,98929.94
2022-10-21T16:27:56.240Z,98935.94
2022-10-21T16:30:26.988Z,98933.31
2022-10-21T16:32:54.616Z,98945.25
2022-10-21T16:35:22.047Z,98940.22
2022-10-21T16:37:49.838Z,98943.94
2022-10-21T16:40:23.871Z,98945.25
2022-10-21T16:42:52.522Z,98943.09
2022-10-21T16:45:21.274Z,98940.94
2022-10-21T16:47:52.902Z,98942.84
2022-10-21T16:50:43.909Z,98938.66
2022-10-21T16:53:14.981Z,98941.31
2022-10-21T16:55:42.149Z,98943.09
2022-10-21T16:58:09.189Z,98943.44
2022-10-21T17:00:36.263Z,98947.75
2022-10-21T17:03:03.329Z,98946.22
2022-10-21T17:05:30.328Z,98955.16
2022-10-21T17:07:58.650Z,98944.78
2022-10-21T17:10:25.980Z,98944.91
2022-10-21T17:12:58.896Z,98945.50
2022-10-21T17:15:26.762Z,98944.91
2022-10-21T17:17:53.868Z,98943.69
2022-10-21T17:20:21.040Z,98943.13
2022-10-21T17:22:48.095Z,98953.38
2022-10-21T17:25:15.024Z,98956.13
2022-10-21T17:27:42.155Z,98957.31
2022-10-21T17:30:10.259Z,98953.38
2022-10-21T17:32:37.207Z,98951.00
2022-10-21T17:35:04.325Z,98958.16
2022-10-21T17:37:31.191Z,98956.47
2022-10-21T17:39:58.167Z,98963.28
2022-10-21T17:42:25.088Z,98956.00
2022-10-21T17:44:52.823Z,98957.66
2022-10-21T17:47:19.785Z,98954.09
2022-10-21T17:49:46.668Z,98968.44
2022-10-21T17:52:13.585Z,98966.28
2022-10-21T17:54:40.504Z,98969.88
2022-10-21T17:57:07.433Z,98971.41
2022-10-21T17:59:34.418Z,98977.50
2022-10-21T18:02:01.998Z,98978.47
2022-10-21T18:04:28.882Z,98974.88
2022-10-21T18:06:56.026Z,98968.91
2022-10-21T18:09:22.985Z,98969.63
2022-10-21T18:11:50.002Z,98972.97
2022-10-21T18:14:16.941Z,98977.63
2022-10-21T18:16:43.805Z,98969.88
2022-10-21T18:19:12.181Z,98982.75
2022-10-21T18:21:39.211Z,98971.66
2022-10-21T18:24:09.918Z,98972.50
2022-10-21T18:26:39.742Z,98976.78
2022-10-21T18:29:06.669Z,98971.28
2022-10-21T18:31:37.263Z,98978.59
2022-10-21T18:34:05.287Z,98974.03
2022-10-21T18:36:32.433Z,98975.22
2022-10-21T18:39:00.390Z,98976.66
2022-10-21T18:41:27.879Z,98983.00
2022-10-21T18:44:04.789Z,98979.28
2022-10-21T18:46:32.230Z,98972.84
2022-10-21T18:48:59.377Z,98977.50
2022-10-21T18:51:26.277Z,98969.25
2022-10-21T18:53:53.468Z,98982.88
2022-10-21T18:56:22.494Z,98983.97
2022-10-21T18:58:50.117Z,98981.22
2022-10-21T19:01:18.331Z,98974.03
2022-10-21T19:03:46.233Z,98983.00
2022-10-21T19:06:42.819Z,98987.03
2022-10-21T19:09:20.265Z,98980.72
2022-10-21T19:11:47.726Z,98980.47
2022-10-21T19:14:16.015Z,98977.47
2022-10-21T19:16:44.000Z,98977.50
2022-10-21T19:19:11.101Z,98982.88
2022-10-21T19:21:38.121Z,98978.44
2022-10-21T19:24:05.372Z,98978.44
2022-10-21T19:26:34.337Z,98983.56
2022-10-21T19:29:07.303Z,98985.00
2022-10-21T19:31:36.194Z,98981.34
2022-10-21T19:34:06.021Z,98985.84
2022-10-21T19:36:32.920Z,98981.91
2022-10-21T19:38:59.872Z,98985.03
2022-10-21T19:41:26.721Z,98978.09
2022-10-21T19:43:58.536Z,98981.44
2022-10-21T19:46:27.738Z,98984.31
2022-10-21T19:48:54.937Z,98977.59
2022-10-21T19:51:24.058Z,98975.59
2022-10-21T19:53:51.905Z,98975.31
2022-10-21T19:56:23.730Z,98971.28
2022-10-21T19:58:54.210Z,98976.78
2022-10-21T20:01:24.813Z,98969.75
2022-10-21T20:03:53.495Z,98974.84
2022-10-21T20:06:23.682Z,98968.78
2022-10-21T20:08:51.355Z,98969.13
2022-10-21T20:11:20.018Z,98970.44
2022-10-21T20:13:47.964Z,98973.19
2022-10-21T20:16:17.250Z,98980.59
2022-10-21T20:18:44.240Z,98975.34
2022-10-21T20:21:11.136Z,98975.59
2022-10-21T20:23:38.005Z,98983.22
2022-10-21T20:26:05.657Z,98973.19
2022-10-21T20:28:32.619Z,98970.22
2022-10-21T20:31:06.806Z,98974.78
2022-10-21T20:33:36.962Z,98971.88
2022-10-21T20:36:06.213Z,98975.34
2022-10-21T20:38:33.721Z,98968.44
2022-10-21T20:41:03.095Z,98967.13
2022-10-21T20:43:30.285Z,98969.88
2022-10-21T20:46:00.538Z,98974.63
2022-10-21T20:48:28.195Z,98967.72
2022-10-21T20:51:09.038Z,98967.25
2022-10-21T20:53:37.119Z,98959.94
2022-10-21T20:56:04.191Z,98962.69
2022-10-21T20:58:35.018Z,98955.16
2022-10-21T21:01:14.551Z,98955.28
2022-10-21T21:03:43.004Z,98951.81
2022-10-21T21:06:11.726Z,98954.09
2022-10-21T21:08:48.706Z,98948.94
2022-10-21T21:11:21.227Z,98950.03
2022-10-21T21:13:48.542Z,98951.13
2022-10-21T21:16:18.152Z,98943.81
2022-10-21T21:18:51.083Z,98936.69
2022-10-21T21:21:19.296Z,98940.16
2022-10-21T21:23:46.517Z,98937.63
2022-10-21T21:26:17.523Z,98939.19
2022-10-21T21:28:45.839Z,98935.72
2022-10-21T21:31:14.345Z,98940.38
2022-10-21T21:33:42.565Z,98942.16
2022-10-21T21:36:09.594Z,98937.53
2022-10-21T21:38:36.513Z,98933.94
2022-10-21T21:41:06.727Z,98929.50
2022-10-21T21:43:37.001Z,98940.84
2022-10-21T21:46:04.671Z,98920.44
2022-10-21T21:48:32.826Z,98916.03
2022-10-21T21:51:10.311Z,98922.00
2022-10-21T21:53:38.393Z,98915.91
2022-10-21T21:56:07.593Z,98912.66
2022-10-21T21:58:34.479Z,98912.91
2022-10-21T22:01:14.791Z,98916.50
2022-10-21T22:03:42.550Z,98910.91
2022-10-21T22:06:09.924Z,98904.56
2022-10-21T22:08:41.801Z,98896.34
2022-10-21T22:11:11.921Z,98905.66
2022-10-21T22:13:39.693Z,98903.97
2022-10-21T22:16:08.439Z,98899.53
2022-10-21T22:18:36.287Z,98902.75
2022-10-21T22:21:12.198Z,98906.00
2022-10-21T22:23:40.257Z,98896.31
2022-10-21T22:26:07.748Z,98893.19
2022-10-21T22:28:35.500Z,98891.06
2022-10-21T22:31:11.684Z,98889.41
2022-10-21T22:33:39.410Z,98879.84
2022-10-21T22:36:06.773Z,98882.03
2022-10-21T22:38:33.949Z,98888.19
2022-10-21T22:41:02.626Z,98886.31
2022-10-21T22:43:30.276Z,98886.31
2022-10-21T22:46:05.205Z,98889.63
2022-10-21T22:48:42.397Z,98879.63
2022-10-21T22:51:09.404Z,98880.91
2022-10-21T22:53:36.880Z,98873.19
2022-10-21T22:56:04.515Z,98871.97
2022-10-21T22:58:31.619Z,98883.34
2022-10-21T23:00:58.769Z,98873.66
2022-10-21T23:03:25.701Z,98876.16
2022-10-21T23:05:52.665Z,98876.78
2022-10-21T23:08:19.563Z,98871.38
2022-10-21T23:10:49.360Z,98869.38
2022-10-21T23:13:16.658Z,98879.25
2022-10-21T23:15:44.207Z,98881.53
2022-10-21T23:18:11.329Z,98876.25
2022-10-21T23:20:38.556Z,98871.94
2022-10-21T23:23:05.828Z,98881.97
2022-10-21T23:25:33.304Z,98887.69
2022-10-21T23:28:00.155Z,98888.88
2022-10-21T23:30:27.150Z,98883.34
2022-10-21T23:32:54.018Z,98884.56
2022-10-21T23:35:21.069Z,98882.88
2022-10-21T23:37:47.972Z,98874.91
2022-10-21T23:40:14.884Z,98881.09
2022-10-21T23:42:42.879Z,98884.19
2022-10-21T23:45:11.542Z,98884.44
2022-10-21T23:47:39.901Z,98882.28
2022-10-21T23:50:08.877Z,98888.56
2022-10-21T23:52:36.841Z,98875.59
2022-10-21T23:55:08.684Z,98879.75
2022-10-21T23:57:35.609Z,98889.78
